Time;durP1;ratioP1;P1;durP2;ratioP2;P2;SDS_P1;SDS_P2;PMS_P1;PMS_P2;Temp;Humidity;BMP_temperature;BMP_pressure;BME280_temperature;BME280_humidity;BME280_pressure;Samples;Min_cycle;Max_cycle;Signal;HPM_P1;HPM_P2
2022/04/25 00:02:00;;;;;;;6.22;5.82;;;9.40;99.90;;;;;;5053828;28;20420;-86
2022/04/25 00:04:26;;;;;;;5.50;5.20;;;10.20;99.90;;;;;;5055031;28;20389;-88
2022/04/25 00:06:51;;;;;;;5.20;4.90;;;9.50;99.90;;;;;;5049061;28;20852;-87
2022/04/25 00:09:17;;;;;;;5.10;4.80;;;9.80;99.90;;;;;;5050185;28;20737;-88
2022/04/25 00:11:43;;;;;;;5.70;5.28;;;9.80;99.90;;;;;;5055015;28;20385;-88
2022/04/25 00:14:09;;;;;;;6.13;5.72;;;9.80;99.90;;;;;;5054827;28;20389;-87
2022/04/25 00:16:34;;;;;;;6.10;5.77;;;9.60;99.90;;;;;;5054937;28;20389;-87
2022/04/25 00:19:00;;;;;;;6.23;5.83;;;9.60;99.90;;;;;;5055191;28;20827;-88
2022/04/25 00:21:26;;;;;;;5.22;4.93;;;9.60;99.90;;;;;;5055070;28;20388;-87
2022/04/25 00:23:52;;;;;;;6.25;5.85;;;9.70;99.90;;;;;;5053498;28;20480;-88
2022/04/25 00:26:18;;;;;;;6.13;5.73;;;9.50;99.90;;;;;;5054796;28;20378;-87
2022/04/25 00:28:44;;;;;;;6.60;6.20;;;9.60;99.90;;;;;;5053735;28;20421;-87
2022/04/25 00:31:10;;;;;;;7.10;6.60;;;9.40;99.90;;;;;;5051077;28;20391;-88
2022/04/25 00:33:35;;;;;;;5.60;5.30;;;9.40;99.90;;;;;;5040772;28;20401;-85
2022/04/25 00:36:01;;;;;;;6.38;5.97;;;9.30;99.90;;;;;;5054635;28;20389;-85
2022/04/25 00:38:26;;;;;;;6.53;6.13;;;9.80;99.90;;;;;;5053755;28;20466;-87
2022/04/25 00:40:52;;;;;;;5.80;5.50;;;9.80;99.90;;;;;;5046759;28;20378;-86
2022/04/25 00:43:18;;;;;;;6.37;5.97;;;9.20;99.90;;;;;;5054337;28;20377;-85
2022/04/25 00:45:43;;;;;;;5.90;5.50;;;10.10;99.90;;;;;;5054158;28;20468;-85
2022/04/25 00:48:09;;;;;;;5.20;4.90;;;9.20;99.90;;;;;;5040273;28;20391;-85
2022/04/25 00:50:39;;;;;;;4.80;4.50;;;9.20;99.90;;;;;;5045605;28;20396;-86
2022/04/25 00:53:05;;;;;;;4.90;4.60;;;9.30;99.90;;;;;;5054167;28;20385;-86
2022/04/25 00:55:31;;;;;;;4.00;3.80;;;9.70;99.90;;;;;;5040029;28;20897;-86
2022/04/25 00:57:58;;;;;;;4.15;3.85;;;10.60;99.90;;;;;;5054005;28;20401;-86
2022/04/25 01:00:25;;;;;;;4.05;3.85;;;9.90;99.90;;;;;;5039892;28;20461;-86
2022/04/25 01:02:50;;;;;;;3.75;3.55;;;9.80;99.90;;;;;;5053994;28;20793;-86
2022/04/25 01:05:16;;;;;;;4.88;4.57;;;9.90;99.90;;;;;;5057644;28;20475;-85
2022/04/25 01:07:42;;;;;;;5.40;5.10;;;10.30;99.90;;;;;;5039300;28;20410;-87
2022/04/25 01:10:10;;;;;;;5.43;5.03;;;9.70;99.90;;;;;;5043464;28;20456;-86
2022/04/25 01:12:36;;;;;;;4.70;4.40;;;9.50;99.90;;;;;;5052954;28;20392;-86
2022/04/25 01:15:08;;;;;;;5.90;5.50;;;9.50;99.90;;;;;;5053671;28;20452;-86
2022/04/25 01:17:33;;;;;;;5.57;5.28;;;9.50;99.90;;;;;;5053733;28;20389;-86
2022/04/25 01:19:59;;;;;;;5.38;4.97;;;9.40;99.90;;;;;;5054033;28;20401;-84
2022/04/25 01:22:31;;;;;;;4.60;4.30;;;9.40;99.90;;;;;;5053843;28;20750;-85
2022/04/25 01:27:42;;;;;;;5.40;5.07;;;9.70;99.90;;;;;;5047951;28;20381;-86
2022/04/25 01:30:09;;;;;;;5.55;5.25;;;9.50;99.90;;;;;;5053614;28;20992;-85
2022/04/25 01:32:37;;;;;;;4.50;4.20;;;9.20;99.90;;;;;;5053672;28;20480;-85
2022/04/25 01:35:04;;;;;;;5.60;5.20;;;9.40;99.90;;;;;;5053337;28;20464;-86
2022/04/25 01:37:31;;;;;;;5.97;5.47;;;9.70;99.90;;;;;;5051832;28;20400;-85
2022/04/25 01:39:57;;;;;;;6.32;5.82;;;9.80;99.90;;;;;;5053240;28;20424;-86
2022/04/25 01:42:23;;;;;;;7.03;6.53;;;9.50;99.90;;;;;;5044277;28;20387;-85
2022/04/25 01:44:50;;;;;;;6.90;6.50;;;9.30;99.90;;;;;;5063580;28;20905;-85
2022/04/25 01:47:16;;;;;;;6.53;6.13;;;9.10;99.90;;;;;;5052021;28;20488;-85
2022/04/25 01:49:42;;;;;;;6.32;5.93;;;9.30;99.90;;;;;;5045427;28;20390;-85
2022/04/25 01:52:28;;;;;;;5.78;5.38;;;9.40;99.90;;;;;;5037590;28;20484;-85
2022/04/25 01:54:54;;;;;;;6.57;6.00;;;9.60;99.90;;;;;;5051762;28;20425;-86
2022/04/25 01:57:20;;;;;;;5.85;5.45;;;9.80;99.90;;;;;;5052092;28;20381;-86
2022/04/25 01:59:46;;;;;;;5.43;5.10;;;10.00;99.90;;;;;;5053232;28;20420;-85
2022/04/25 02:02:13;;;;;;;5.70;5.30;;;10.00;99.90;;;;;;5047902;28;20383;-85
2022/04/25 02:04:40;;;;;;;5.37;4.97;;;10.30;99.90;;;;;;5053602;28;20389;-86
2022/04/25 02:07:07;;;;;;;5.15;4.85;;;10.10;99.90;;;;;;5043905;28;20479;-86
2022/04/25 02:09:34;;;;;;;4.22;3.95;;;10.10;99.90;;;;;;5051593;28;20386;-86
2022/04/25 02:12:00;;;;;;;4.03;3.83;;;10.20;99.90;;;;;;5052824;28;20394;-86
2022/04/25 02:14:29;;;;;;;4.05;3.75;;;10.90;99.90;;;;;;5051511;28;20398;-86
2022/04/25 02:16:58;;;;;;;3.60;3.40;;;10.10;99.90;;;;;;5033047;28;20399;-85
2022/04/25 02:19:25;;;;;;;3.20;3.00;;;10.00;99.90;;;;;;5020990;28;20424;-85
2022/04/25 02:21:50;;;;;;;3.20;3.00;;;10.20;99.90;;;;;;5038651;28;20607;-84
2022/04/25 02:24:16;;;;;;;3.43;3.23;;;10.00;99.90;;;;;;5051279;28;20389;-85
2022/04/25 02:26:41;;;;;;;4.03;3.73;;;9.90;99.90;;;;;;5051914;28;20457;-85
2022/04/25 02:29:07;;;;;;;3.87;3.67;;;9.90;99.90;;;;;;5052986;28;20873;-86
2022/04/25 02:31:33;;;;;;;3.65;3.42;;;9.70;99.90;;;;;;5051447;28;20400;-86
2022/04/25 02:33:58;;;;;;;3.95;3.75;;;9.70;99.90;;;;;;5052443;28;20397;-86
2022/04/25 02:36:24;;;;;;;4.50;4.20;;;9.40;99.90;;;;;;5039747;28;20441;-86
2022/04/25 02:38:50;;;;;;;4.75;4.45;;;8.90;99.90;;;;;;5051086;28;20416;-86
2022/04/25 02:41:16;;;;;;;4.78;4.47;;;9.20;99.90;;;;;;5052265;28;20862;-86
2022/04/25 02:43:43;;;;;;;4.72;4.43;;;9.50;99.90;;;;;;5052058;28;20393;-86
2022/04/25 02:46:11;;;;;;;4.63;4.32;;;8.80;99.90;;;;;;5040270;28;20383;-87
2022/04/25 02:48:39;;;;;;;4.10;3.90;;;9.00;99.90;;;;;;5050366;28;20396;-86
2022/04/25 02:51:05;;;;;;;4.20;4.00;;;8.80;99.90;;;;;;5033129;28;20398;-86
2022/04/25 02:53:32;;;;;;;4.78;4.47;;;8.90;99.90;;;;;;5048335;28;20408;-85
2022/04/25 02:55:58;;;;;;;5.88;5.47;;;9.80;99.90;;;;;;5052334;28;20396;-85
2022/04/25 02:58:25;;;;;;;6.40;6.00;;;8.80;99.90;;;;;;5051909;28;20409;-85
2022/04/25 03:00:51;;;;;;;6.70;6.20;;;8.70;99.90;;;;;;5051948;28;20432;-85
2022/04/25 03:03:18;;;;;;;7.25;6.80;;;8.60;99.90;;;;;;5051917;28;20389;-86
2022/04/25 03:05:46;;;;;;;6.32;5.93;;;9.80;99.90;;;;;;5051855;28;20461;-85
2022/04/25 03:08:13;;;;;;;5.88;5.57;;;8.60;99.90;;;;;;5042593;28;20460;-85
2022/04/25 03:10:40;;;;;;;6.00;5.60;;;9.70;99.90;;;;;;5044233;28;20375;-84
2022/04/25 03:13:06;;;;;;;7.32;6.82;;;9.80;99.90;;;;;;5046068;28;20376;-85
2022/04/25 03:15:33;;;;;;;7.47;6.97;;;8.70;99.90;;;;;;5043594;28;20389;-85
2022/04/25 03:17:59;;;;;;;8.02;7.53;;;8.70;99.90;;;;;;5043287;28;20386;-85
2022/04/25 03:20:25;;;;;;;8.37;7.77;;;8.80;99.90;;;;;;5050629;28;20793;-85
2022/04/25 03:22:51;;;;;;;8.15;7.65;;;8.60;99.90;;;;;;5051813;28;20476;-86
2022/04/25 03:25:16;;;;;;;7.20;6.80;;;8.60;99.90;;;;;;5052330;28;20465;-85
2022/04/25 03:27:42;;;;;;;6.63;6.23;;;8.70;99.90;;;;;;5051714;28;20867;-86
2022/04/25 03:30:08;;;;;;;6.30;5.90;;;8.90;99.90;;;;;;5051721;28;20881;-86
2022/04/25 03:32:34;;;;;;;6.50;6.10;;;8.90;99.90;;;;;;5051766;28;20385;-85
2022/04/25 03:35:03;;;;;;;5.30;5.00;;;9.00;99.90;;;;;;5051569;28;20393;-85
2022/04/25 03:37:30;;;;;;;5.00;4.70;;;9.20;99.90;;;;;;5049903;28;20401;-86
2022/04/25 03:39:58;;;;;;;5.03;4.72;;;9.40;99.90;;;;;;5051544;28;20405;-85
2022/04/25 03:42:24;;;;;;;4.63;4.32;;;9.50;99.90;;;;;;5051603;28;20886;-85
2022/04/25 03:44:50;;;;;;;4.90;4.60;;;10.20;99.90;;;;;;5051350;28;20451;-86
2022/04/25 03:47:16;;;;;;;4.90;4.60;;;9.50;99.90;;;;;;5051623;28;20431;-87
2022/04/25 03:49:42;;;;;;;4.93;4.63;;;10.20;99.90;;;;;;5042105;28;20437;-86
2022/04/25 03:52:07;;;;;;;4.27;4.07;;;9.60;99.90;;;;;;5036859;28;20902;-85
2022/04/25 03:57:17;;;;;;;5.72;5.43;;;10.50;99.90;;;;;;5041352;28;20818;-85
2022/04/25 03:59:43;;;;;;;6.90;6.50;;;10.10;99.90;;;;;;5038107;28;20435;-86
2022/04/25 04:02:09;;;;;;;6.40;6.00;;;9.10;99.90;;;;;;5035071;28;20460;-85
2022/04/25 04:04:34;;;;;;;7.40;6.90;;;9.00;99.90;;;;;;5051202;28;20374;-85
2022/04/25 04:07:02;;;;;;;7.30;6.80;;;9.20;99.90;;;;;;5045866;28;20423;-85
2022/04/25 04:09:46;;;;;;;8.15;7.60;;;8.80;99.90;;;;;;5052959;28;20980;-85
2022/04/25 04:12:12;;;;;;;7.72;7.13;;;9.20;99.90;;;;;;5042060;28;20422;-86
2022/04/25 04:14:39;;;;;;;6.43;6.03;;;8.80;99.90;;;;;;5038869;28;20450;-86
2022/04/25 04:17:08;;;;;;;5.95;5.57;;;9.50;99.90;;;;;;5053479;28;20943;-85
2022/04/25 04:19:38;;;;;;;5.82;5.53;;;9.20;99.90;;;;;;5055633;28;20405;-86
2022/04/25 04:22:05;;;;;;;5.40;5.00;;;9.30;99.90;;;;;;5047952;28;20754;-86
2022/04/25 04:24:31;;;;;;;5.60;5.20;;;9.50;99.90;;;;;;5054749;28;20465;-85
2022/04/25 04:27:03;;;;;;;4.90;4.60;;;9.30;99.90;;;;;;5054768;28;20385;-85
2022/04/25 04:29:29;;;;;;;4.80;4.50;;;9.70;99.90;;;;;;5045143;28;20419;-86
2022/04/25 04:32:05;;;;;;;4.82;4.53;;;9.50;99.90;;;;;;5053181;28;20424;-86
2022/04/25 04:34:31;;;;;;;4.50;4.20;;;9.70;99.90;;;;;;5054427;28;20444;-85
2022/04/25 04:36:57;;;;;;;4.10;3.90;;;10.10;99.90;;;;;;5054003;28;20389;-85
2022/04/25 04:39:23;;;;;;;4.50;4.20;;;9.80;99.90;;;;;;5048122;28;20545;-86
2022/04/25 04:41:48;;;;;;;5.33;5.03;;;9.90;99.90;;;;;;5031975;28;20404;-85
2022/04/25 04:44:14;;;;;;;4.77;4.47;;;10.00;99.90;;;;;;5039912;28;20379;-85
2022/04/25 04:46:41;;;;;;;4.68;4.43;;;9.80;99.90;;;;;;5036606;28;20448;-85
2022/04/25 04:49:06;;;;;;;4.80;4.50;;;10.00;99.90;;;;;;5051393;28;20391;-85
2022/04/25 04:51:32;;;;;;;4.90;4.60;;;10.00;99.90;;;;;;5034494;28;20409;-85
2022/04/25 04:53:59;;;;;;;4.23;4.03;;;10.20;99.90;;;;;;5034096;28;20387;-85
2022/04/25 04:56:26;;;;;;;4.10;3.90;;;10.40;99.90;;;;;;5046299;28;20405;-85
2022/04/25 04:58:53;;;;;;;4.82;4.53;;;10.40;99.90;;;;;;5049313;28;20403;-85
2022/04/25 05:01:19;;;;;;;5.05;4.75;;;10.30;99.90;;;;;;5036148;28;20394;-85
2022/04/25 05:03:44;;;;;;;4.70;4.43;;;10.30;99.90;;;;;;5050693;28;20377;-85
2022/04/25 05:06:11;;;;;;;4.85;4.65;;;10.40;99.90;;;;;;5053829;28;20858;-85
2022/04/25 05:08:36;;;;;;;5.32;5.03;;;10.30;99.90;;;;;;5045468;28;20382;-85
2022/04/25 05:11:03;;;;;;;4.83;4.57;;;10.10;99.90;;;;;;5052637;28;20458;-85
2022/04/25 05:13:31;;;;;;;3.73;3.53;;;10.20;99.90;;;;;;5046273;28;20479;-85
2022/04/25 05:15:56;;;;;;;3.13;2.92;;;10.40;99.90;;;;;;5046235;28;20379;-86
2022/04/25 05:18:22;;;;;;;3.00;2.80;;;10.50;99.90;;;;;;5041772;28;20401;-85
2022/04/25 05:20:48;;;;;;;3.00;2.80;;;10.10;99.90;;;;;;5053948;28;20845;-85
2022/04/25 05:23:13;;;;;;;3.20;3.00;;;10.10;99.90;;;;;;5053771;28;20583;-85
2022/04/25 05:25:39;;;;;;;2.90;2.70;;;10.60;99.90;;;;;;5046732;28;21085;-86
2022/04/25 05:28:06;;;;;;;2.97;2.78;;;10.70;99.90;;;;;;5031150;28;20766;-85
2022/04/25 05:30:33;;;;;;;2.65;2.50;;;10.00;99.90;;;;;;5033286;28;20930;-85
2022/04/25 05:33:02;;;;;;;2.45;2.35;;;10.20;99.90;;;;;;5036432;28;20395;-85
2022/04/25 05:35:31;;;;;;;2.70;2.60;;;10.20;99.90;;;;;;5044793;28;20749;-86
2022/04/25 05:37:57;;;;;;;2.97;2.77;;;10.10;99.90;;;;;;5047905;28;20408;-86
2022/04/25 05:40:25;;;;;;;2.60;2.50;;;10.90;99.90;;;;;;5043769;28;20411;-86
2022/04/25 05:42:51;;;;;;;2.50;2.40;;;10.20;99.90;;;;;;5033754;28;20775;-86
2022/04/25 05:45:20;;;;;;;2.95;2.75;;;10.10;99.90;;;;;;5034237;28;20433;-86
2022/04/25 05:47:47;;;;;;;2.80;2.60;;;10.70;99.90;;;;;;5032966;28;20444;-86
2022/04/25 05:52:59;;;;;;;2.55;2.45;;;9.90;99.90;;;;;;5039201;28;20398;-86
2022/04/25 05:55:25;;;;;;;3.10;2.90;;;9.70;99.90;;;;;;5039717;28;20381;-86
2022/04/25 05:57:51;;;;;;;3.05;2.83;;;9.90;99.90;;;;;;5042086;28;20426;-86
2022/04/25 06:00:17;;;;;;;3.65;2.75;;;9.90;99.90;;;;;;5048005;28;20925;-86
2022/04/25 06:02:44;;;;;;;3.00;2.70;;;10.00;99.90;;;;;;5044401;28;20391;-87
2022/04/25 06:05:11;;;;;;;2.60;2.50;;;10.20;99.90;;;;;;5031559;28;20862;-87
2022/04/25 06:07:45;;;;;;;2.40;2.30;;;10.70;99.90;;;;;;5049606;28;20914;-84
2022/04/25 06:10:12;;;;;;;2.83;2.33;;;10.10;99.90;;;;;;5053412;28;20389;-85
2022/04/25 06:12:42;;;;;;;3.03;2.83;;;10.70;99.90;;;;;;5050426;28;20892;-85
2022/04/25 06:15:09;;;;;;;2.50;2.38;;;10.20;99.90;;;;;;5034913;28;20398;-86
2022/04/25 06:17:35;;;;;;;2.40;2.30;;;10.10;99.90;;;;;;5028012;28;20392;-86
2022/04/25 06:20:02;;;;;;;2.40;2.22;;;10.10;99.90;;;;;;5039160;28;20405;-86
2022/04/25 06:22:27;;;;;;;2.13;2.03;;;10.20;99.90;;;;;;5040649;28;20394;-85
2022/04/25 06:24:53;;;;;;;2.50;2.30;;;10.30;99.90;;;;;;5038868;28;20397;-85
2022/04/25 06:27:18;;;;;;;2.53;2.40;;;10.30;99.90;;;;;;5051294;28;20439;-85
2022/04/25 06:29:46;;;;;;;2.43;2.30;;;10.30;99.90;;;;;;5039457;28;20425;-86
2022/04/25 06:32:13;;;;;;;2.80;2.60;;;11.00;99.90;;;;;;5029541;28;20918;-84
2022/04/25 06:34:40;;;;;;;2.78;2.67;;;10.20;99.90;;;;;;5046154;28;20813;-84
2022/04/25 06:37:06;;;;;;;3.97;3.25;;;10.20;99.90;;;;;;5050199;28;20850;-85
2022/04/25 06:39:33;;;;;;;5.50;5.10;;;10.10;99.90;;;;;;5027337;28;20897;-84
2022/04/25 06:41:59;;;;;;;5.43;5.03;;;9.70;99.90;;;;;;5051533;28;20416;-86
2022/04/25 06:44:25;;;;;;;4.45;4.20;;;9.40;99.90;;;;;;5052465;28;20389;-84
2022/04/25 06:46:50;;;;;;;4.20;3.90;;;9.90;99.90;;;;;;5052039;28;20398;-84
2022/04/25 06:49:25;;;;;;;5.10;4.70;;;9.70;99.90;;;;;;5047918;28;20390;-84
2022/04/25 06:51:52;;;;;;;4.00;3.80;;;10.20;99.90;;;;;;5049304;28;20408;-85
2022/04/25 06:54:18;;;;;;;3.92;3.72;;;9.80;99.90;;;;;;5052359;28;20438;-84
2022/04/25 06:56:44;;;;;;;4.80;4.40;;;10.10;99.90;;;;;;5052008;28;20388;-85
2022/04/25 06:59:09;;;;;;;4.30;4.00;;;10.20;99.90;;;;;;5051896;28;20409;-84
2022/04/25 07:01:36;;;;;;;3.90;3.70;;;10.20;99.90;;;;;;5034316;28;20399;-85
2022/04/25 07:04:02;;;;;;;4.33;4.03;;;10.30;99.90;;;;;;5037097;28;20445;-84
2022/04/25 07:06:28;;;;;;;4.90;4.60;;;10.40;99.90;;;;;;5038372;28;20381;-85
2022/04/25 07:08:53;;;;;;;4.73;4.43;;;10.30;99.90;;;;;;5031474;28;20390;-84
2022/04/25 07:11:19;;;;;;;6.00;5.60;;;10.40;99.90;;;;;;5051105;28;20874;-84
2022/04/25 07:13:45;;;;;;;5.10;4.80;;;10.20;99.90;;;;;;5051932;28;20381;-84
2022/04/25 07:16:14;;;;;;;5.90;5.50;;;10.00;99.90;;;;;;5051668;28;20946;-84
2022/04/25 07:18:40;;;;;;;7.22;6.72;;;10.00;99.90;;;;;;5051586;28;20409;-84
2022/04/25 07:29:18;;;;;;;7.32;6.82;;;9.90;99.90;;;;;;5052019;28;20793;-85
2022/04/25 07:31:44;;;;;;;6.70;6.20;;;10.20;99.90;;;;;;5038954;28;20384;-84
2022/04/25 07:34:10;;;;;;;7.60;7.00;;;10.30;99.90;;;;;;5051718;28;20417;-84
2022/04/25 07:36:36;;;;;;;7.80;7.20;;;10.40;99.90;;;;;;5051770;28;20409;-85
2022/04/25 07:39:03;;;;;;;8.55;7.85;;;10.80;99.90;;;;;;5051691;28;20406;-85
2022/04/25 07:41:29;;;;;;;6.15;5.75;;;10.40;99.90;;;;;;5053383;28;20477;-85
2022/04/25 07:43:55;;;;;;;8.93;8.23;;;10.10;99.90;;;;;;5055479;28;20464;-85
2022/04/25 07:46:23;;;;;;;8.70;8.00;;;10.10;99.90;;;;;;5055229;28;20443;-85
2022/04/25 07:48:49;;;;;;;7.95;7.45;;;10.20;99.90;;;;;;5055026;28;20386;-85
2022/04/25 07:51:15;;;;;;;8.40;7.80;;;10.10;99.90;;;;;;5037712;28;20375;-85
2022/04/25 07:53:41;;;;;;;7.22;6.63;;;10.30;99.90;;;;;;5053274;28;20727;-85
2022/04/25 07:56:07;;;;;;;6.68;6.28;;;10.50;99.90;;;;;;5055416;28;20385;-85
2022/04/25 07:58:34;;;;;;;6.07;5.68;;;10.40;99.90;;;;;;5055054;28;20924;-85
2022/04/25 08:01:01;;;;;;;5.97;5.57;;;10.60;99.90;;;;;;5051599;28;20381;-85
2022/04/25 08:03:27;;;;;;;6.20;5.80;;;10.70;99.90;;;;;;5055208;28;20460;-85
2022/04/25 08:05:52;;;;;;;6.10;5.60;;;10.80;99.90;;;;;;5055121;28;20396;-85
2022/04/25 08:08:18;;;;;;;6.97;6.47;;;11.00;99.90;;;;;;5055170;28;20385;-85
2022/04/25 08:10:44;;;;;;;8.40;7.77;;;11.20;99.90;;;;;;5055005;28;20382;-85
2022/04/25 08:18:38;;;;;;;10.63;9.63;;;11.50;99.90;;;;;;5055249;28;20467;-84
2022/04/25 08:21:04;;;;;;;9.15;8.32;;;11.50;99.90;;;;;;5054934;28;20781;-84
2022/04/25 08:23:29;;;;;;;8.23;7.53;;;11.60;99.90;;;;;;5054838;28;20436;-85
2022/04/25 08:25:55;;;;;;;7.37;6.67;;;11.60;99.90;;;;;;5054821;28;20386;-84
2022/04/25 08:28:21;;;;;;;7.03;6.53;;;11.60;99.90;;;;;;5054797;28;20382;-85
2022/04/25 08:30:46;;;;;;;7.00;6.50;;;11.60;99.90;;;;;;5044613;28;20387;-83
2022/04/25 08:33:13;;;;;;;7.70;7.20;;;11.30;99.90;;;;;;5051958;28;20381;-84
2022/04/25 08:35:39;;;;;;;8.60;7.90;;;11.20;99.90;;;;;;5054476;28;20821;-83
2022/04/25 08:38:05;;;;;;;9.00;8.20;;;11.30;99.90;;;;;;5036380;28;20472;-84
2022/04/25 08:40:32;;;;;;;6.90;6.47;;;11.50;99.90;;;;;;5034974;28;20407;-84
2022/04/25 08:42:58;;;;;;;7.07;6.57;;;11.50;99.90;;;;;;5033639;28;20523;-84
2022/04/25 08:45:24;;;;;;;10.30;9.40;;;11.40;99.90;;;;;;5040780;28;20385;-84
2022/04/25 08:47:54;;;;;;;6.10;5.70;;;11.60;99.90;;;;;;5050017;28;20470;-84
2022/04/25 08:50:20;;;;;;;6.03;5.53;;;11.80;99.90;;;;;;5044002;28;20382;-84
2022/04/25 08:52:47;;;;;;;5.90;5.50;;;11.80;99.90;;;;;;5044132;28;20429;-85
2022/04/25 08:55:14;;;;;;;6.22;5.78;;;11.70;99.90;;;;;;5050861;28;20785;-84
2022/04/25 08:57:42;;;;;;;6.55;5.95;;;11.40;99.90;;;;;;5053939;28;20767;-84
2022/04/25 09:00:08;;;;;;;6.57;5.40;;;11.40;99.90;;;;;;5050529;28;20478;-85
2022/04/25 09:02:34;;;;;;;5.28;4.78;;;11.50;99.90;;;;;;5054025;28;20746;-82
2022/04/25 09:05:01;;;;;;;4.10;3.80;;;11.70;99.90;;;;;;5054286;28;20396;-82
2022/04/25 09:07:27;;;;;;;4.68;4.20;;;11.70;99.90;;;;;;5040314;28;20391;-82
2022/04/25 09:09:54;;;;;;;4.03;3.72;;;11.70;99.90;;;;;;5042037;28;20396;-82
2022/04/25 09:12:20;;;;;;;3.90;3.60;;;11.70;99.90;;;;;;5053802;28;20473;-81
2022/04/25 09:14:46;;;;;;;3.83;3.40;;;11.70;99.90;;;;;;5053855;28;20472;-81
2022/04/25 09:17:12;;;;;;;5.05;3.50;;;11.60;99.90;;;;;;5041736;28;20474;-82
2022/04/25 09:19:39;;;;;;;3.55;3.20;;;11.40;99.90;;;;;;5032448;28;20413;-91
2022/04/25 09:22:06;;;;;;;3.50;3.20;;;11.50;99.90;;;;;;5053809;28;20413;-84
2022/04/25 09:24:34;;;;;;;3.80;3.53;;;11.40;99.90;;;;;;5038291;28;20437;-86
2022/04/25 09:27:17;;;;;;;6.00;3.90;;;11.30;99.90;;;;;;5019755;28;20388;-85
2022/04/25 09:29:43;;;;;;;3.40;3.20;;;11.50;99.90;;;;;;5034542;28;20391;-86
2022/04/25 09:32:09;;;;;;;3.83;3.53;;;11.30;99.90;;;;;;5033322;28;20892;-85
2022/04/25 09:37:45;;;;;;;2.78;2.58;;;11.20;99.90;;;;;;5032107;28;20470;-85
2022/04/25 09:40:12;;;;;;;2.67;2.35;;;11.20;99.90;;;;;;5038183;28;20811;-86
2022/04/25 09:42:38;;;;;;;2.33;2.13;;;11.20;99.90;;;;;;5053694;28;20711;-85
2022/04/25 09:45:05;;;;;;;2.20;2.10;;;11.20;99.90;;;;;;5047908;28;20408;-85
2022/04/25 09:47:36;;;;;;;1.83;1.73;;;11.10;99.90;;;;;;5042561;28;20397;-88
2022/04/25 09:50:14;;;;;;;2.75;1.85;;;11.10;99.90;;;;;;5040957;28;20470;-90
2022/04/25 09:52:59;;;;;;;2.90;1.55;;;11.20;99.90;;;;;;5053612;28;20409;-90
2022/04/25 09:55:27;;;;;;;1.90;1.80;;;11.10;99.90;;;;;;5054687;28;20397;-91
2022/04/25 09:57:54;;;;;;;1.98;1.70;;;11.20;99.90;;;;;;5048142;28;20397;-89
2022/04/25 10:00:38;;;;;;;2.15;1.95;;;11.30;99.90;;;;;;5051365;28;20765;-87
2022/04/25 10:03:07;;;;;;;2.10;1.90;;;11.30;99.90;;;;;;5032138;28;20438;-88
2022/04/25 10:05:39;;;;;;;1.70;1.60;;;11.40;99.90;;;;;;5034322;28;20419;-88
2022/04/25 10:08:06;;;;;;;2.22;1.80;;;11.40;99.90;;;;;;5033879;28;20391;-87
2022/04/25 10:10:33;;;;;;;1.40;1.30;;;11.40;99.90;;;;;;5032184;28;20478;-87
2022/04/25 10:13:00;;;;;;;1.80;1.60;;;11.40;99.90;;;;;;5035277;28;20728;-86
2022/04/25 10:15:26;;;;;;;1.88;1.77;;;11.40;99.90;;;;;;5040011;28;20529;-86
2022/04/25 10:17:54;;;;;;;1.70;1.60;;;11.50;99.90;;;;;;5048431;28;20415;-86
2022/04/25 10:20:19;;;;;;;1.83;1.73;;;11.70;99.90;;;;;;5052731;28;20883;-86
2022/04/25 10:22:46;;;;;;;1.80;1.70;;;11.80;99.90;;;;;;5051719;28;20440;-89
2022/04/25 10:25:12;;;;;;;2.00;1.70;;;11.50;99.90;;;;;;5049750;28;20455;-91
2022/04/25 10:27:40;;;;;;;1.60;1.50;;;11.70;99.90;;;;;;5052823;28;20385;-91
2022/04/25 10:30:14;;;;;;;1.80;1.70;;;11.60;99.90;;;;;;5046781;28;20383;-90
2022/04/25 10:32:41;;;;;;;2.33;2.00;;;11.70;99.90;;;;;;5039273;28;20372;-91
2022/04/25 10:35:16;;;;;;;1.80;1.63;;;11.90;99.90;;;;;;5037690;28;20388;-89
2022/04/25 10:37:44;;;;;;;1.80;1.70;;;11.80;99.90;;;;;;5044475;28;20384;-90
2022/04/25 10:40:17;;;;;;;2.03;1.92;;;11.60;99.90;;;;;;5038003;28;20406;-87
2022/04/25 10:46:00;;;;;;;1.63;1.52;;;11.30;99.90;;;;;;5040398;28;20803;-87
2022/04/25 10:48:26;;;;;;;1.70;1.60;;;11.10;99.90;;;;;;5044995;28;20385;-87
2022/04/25 10:51:18;;;;;;;2.78;2.05;;;11.40;99.90;;;;;;5039602;28;20511;-86
2022/04/25 10:54:05;;;;;;;2.20;1.90;;;11.30;99.90;;;;;;5038764;28;20385;-86
2022/04/25 10:56:32;;;;;;;2.20;2.08;;;10.90;99.90;;;;;;5046010;28;20428;-88
2022/04/25 10:59:21;;;;;;;3.30;1.92;;;10.90;99.90;;;;;;5028588;28;20925;-87
2022/04/25 11:01:47;;;;;;;2.30;2.00;;;10.80;99.90;;;;;;5031497;28;20475;-87
2022/04/25 11:04:18;;;;;;;3.45;2.10;;;10.90;99.90;;;;;;5028124;28;20810;-88
2022/04/25 11:06:44;;;;;;;2.45;2.25;;;10.80;99.90;;;;;;5032719;28;20466;-87
2022/04/25 11:09:09;;;;;;;2.80;2.60;;;10.80;99.90;;;;;;5033939;28;20536;-89
2022/04/25 11:11:53;;;;;;;2.83;2.60;;;10.80;99.90;;;;;;5033776;28;20924;-88
2022/04/25 11:14:19;;;;;;;3.30;2.38;;;10.90;99.90;;;;;;5033741;28;20372;-90
2022/04/25 11:17:17;;;;;;;3.38;2.90;;;10.80;99.90;;;;;;5035947;28;20387;-89
2022/04/25 11:19:51;;;;;;;3.35;3.05;;;11.20;99.90;;;;;;5011166;28;20419;-89
2022/04/25 11:22:41;;;;;;;3.60;3.30;;;10.80;99.90;;;;;;5035418;28;20422;-90
2022/04/25 11:25:25;;;;;;;3.53;3.22;;;10.90;99.90;;;;;;5039357;28;20387;-89
2022/04/25 11:28:10;;;;;;;3.40;3.10;;;10.80;99.90;;;;;;5038757;28;20386;-90
2022/04/25 11:30:36;;;;;;;3.13;2.40;;;10.80;99.90;;;;;;5035440;28;20374;-89
2022/04/25 11:33:04;;;;;;;2.40;2.20;;;10.90;99.90;;;;;;5031721;28;20472;-89
2022/04/25 11:35:30;;;;;;;2.33;2.10;;;10.50;99.90;;;;;;5034701;28;20733;-88
2022/04/25 11:37:56;;;;;;;3.05;2.60;;;10.50;99.90;;;;;;5049768;28;20431;-89
2022/04/25 11:40:23;;;;;;;2.00;1.80;;;10.50;99.90;;;;;;5055807;28;20409;-88
2022/04/25 11:42:49;;;;;;;2.00;1.80;;;10.90;99.90;;;;;;5047077;28;20454;-89
2022/04/25 11:45:14;;;;;;;2.28;2.00;;;10.60;99.90;;;;;;5054204;28;20396;-89
2022/04/25 11:47:40;;;;;;;2.05;1.85;;;10.50;99.90;;;;;;5045619;28;20387;-89
2022/04/25 11:50:12;;;;;;;2.10;2.00;;;10.30;99.90;;;;;;5036547;28;20397;-89
2022/04/25 11:52:52;;;;;;;2.63;2.42;;;10.20;99.90;;;;;;5035357;28;20470;-89
2022/04/25 11:55:31;;;;;;;2.75;2.55;;;10.10;99.90;;;;;;5034370;28;20413;-89
2022/04/25 11:57:57;;;;;;;2.80;2.40;;;10.20;99.90;;;;;;5034675;28;20406;-90
2022/04/25 12:00:23;;;;;;;2.20;2.00;;;10.20;99.90;;;;;;5035611;28;20505;-89
2022/04/25 12:02:49;;;;;;;3.67;3.00;;;10.20;99.90;;;;;;5037508;28;20891;-89
2022/04/25 12:05:33;;;;;;;2.87;2.67;;;10.10;99.90;;;;;;5035145;28;20395;-88
2022/04/25 12:16:14;;;;;;;2.72;2.53;;;10.20;99.90;;;;;;5036846;28;20893;-89
2022/04/25 12:18:51;;;;;;;2.35;2.20;;;10.20;99.90;;;;;;5033110;28;20415;-88
2022/04/25 12:21:17;;;;;;;2.90;2.70;;;10.20;99.90;;;;;;5035378;28;20377;-89
2022/04/25 12:23:52;;;;;;;2.72;2.53;;;10.30;99.90;;;;;;5034198;28;20390;-88
2022/04/25 12:26:27;;;;;;;2.40;2.30;;;10.30;99.90;;;;;;5036086;28;20440;-88
2022/04/25 12:29:01;;;;;;;2.78;2.58;;;10.30;99.90;;;;;;5034490;28;20383;-89
2022/04/25 12:31:28;;;;;;;2.70;2.50;;;10.30;99.90;;;;;;5036465;28;20377;-88
2022/04/25 12:33:54;;;;;;;3.25;3.05;;;10.40;99.90;;;;;;5034666;28;20481;-88
2022/04/25 12:36:22;;;;;;;10.35;9.05;;;10.50;99.90;;;;;;5034774;28;20434;-89
2022/04/25 12:39:13;;;;;;;2.70;2.50;;;10.50;99.90;;;;;;5054556;28;20409;-87
2022/04/25 12:41:41;;;;;;;2.90;2.70;;;10.50;99.90;;;;;;5044260;28;20381;-88
2022/04/25 12:44:09;;;;;;;3.05;2.85;;;10.60;99.90;;;;;;5047168;28;20394;-87
2022/04/25 12:46:38;;;;;;;3.50;3.20;;;10.70;99.90;;;;;;5053043;28;20477;-87
2022/04/25 12:49:17;;;;;;;4.05;3.75;;;10.70;99.90;;;;;;5052002;28;20901;-87
2022/04/25 12:51:46;;;;;;;4.50;4.10;;;10.90;99.90;;;;;;5050082;28;20794;-87
2022/04/25 12:54:30;;;;;;;4.65;4.25;;;11.20;99.90;;;;;;5054166;28;20462;-88
2022/04/25 12:57:16;;;;;;;4.88;4.53;;;11.40;99.90;;;;;;5052914;28;20393;-87
2022/04/25 12:59:46;;;;;;;4.00;3.70;;;11.40;99.90;;;;;;5054278;28;20509;-88
2022/04/25 13:02:14;;;;;;;4.55;4.25;;;11.60;99.90;;;;;;5048785;28;20478;-87
2022/04/25 13:04:58;;;;;;;3.88;3.58;;;11.70;99.90;;;;;;5054045;28;20425;-86
2022/04/25 13:07:31;;;;;;;4.40;4.10;;;11.90;99.90;;;;;;5052998;28;20474;-87
2022/04/25 13:10:00;;;;;;;4.57;4.28;;;12.20;99.90;;;;;;5054021;28;20385;-86
2022/04/25 13:12:48;;;;;;;3.53;3.27;;;12.30;99.90;;;;;;5047041;28;20475;-86
2022/04/25 13:15:17;;;;;;;3.08;2.88;;;12.40;99.90;;;;;;5044434;28;20922;-86
2022/04/25 13:17:43;;;;;;;2.78;2.58;;;12.50;99.90;;;;;;5049731;28;20398;-86
2022/04/25 13:20:11;;;;;;;2.70;2.40;;;12.60;99.90;;;;;;5054728;28;20492;-86
2022/04/25 13:22:37;;;;;;;3.25;3.03;;;12.70;99.90;;;;;;5054408;28;20440;-86
2022/04/25 13:25:05;;;;;;;2.60;2.42;;;12.80;99.90;;;;;;5053725;28;20393;-86
2022/04/25 13:27:31;;;;;;;3.30;3.00;;;12.90;99.90;;;;;;5048230;28;20399;-87
2022/04/25 13:29:57;;;;;;;2.80;2.60;;;12.70;99.90;;;;;;5052808;28;20450;-86
2022/04/25 13:32:22;;;;;;;2.60;2.40;;;12.70;99.90;;;;;;5053899;28;20524;-86